createdAt,value
2019-06-19T00:00:47.568Z,0
2019-06-19T00:01:48.236Z,0
2019-06-19T00:02:48.911Z,0
2019-06-19T00:03:49.620Z,0
2019-06-19T00:04:52.485Z,0
2019-06-19T00:05:52.984Z,0
2019-06-19T00:06:53.611Z,0
2019-06-19T00:07:54.280Z,0
2019-06-19T00:08:54.950Z,0
2019-06-19T00:09:55.619Z,0
2019-06-19T00:11:57.932Z,0
2019-06-19T00:12:58.590Z,0
2019-06-19T00:13:59.245Z,0
2019-06-19T00:15:02.641Z,0
2019-06-19T00:16:03.450Z,0
2019-06-19T00:17:03.196Z,0
2019-06-19T00:18:03.868Z,0
2019-06-19T00:19:04.509Z,0
2019-06-19T00:20:05.165Z,0
2019-06-19T00:21:05.822Z,0
2019-06-19T00:22:36.411Z,0
2019-06-19T00:23:37.102Z,0
2019-06-19T00:25:58.391Z,0
2019-06-19T00:26:59.045Z,0
2019-06-19T00:28:28.856Z,0
2019-06-19T00:29:36.728Z,0
2019-06-19T00:30:25.663Z,0
2019-06-19T00:32:10.692Z,0
2019-06-19T00:33:23.317Z,0
2019-06-19T00:34:23.976Z,0
2019-06-19T00:35:57.430Z,0
2019-06-19T00:37:01.085Z,0
2019-06-19T00:38:01.421Z,0
2019-06-19T00:40:27.127Z,0
2019-06-19T00:41:27.786Z,0
2019-06-19T00:43:16.151Z,0
2019-06-19T00:44:30.704Z,0
2019-06-19T00:46:03.854Z,0
2019-06-19T00:47:04.544Z,0
2019-06-19T00:49:11.419Z,0
2019-06-19T00:50:12.139Z,0
2019-06-19T00:51:12.795Z,0
2019-06-19T00:52:13.451Z,0
2019-06-19T00:53:14.107Z,0
2019-06-19T00:54:14.765Z,0
2019-06-19T00:55:33.542Z,0
2019-06-19T00:56:34.198Z,0
2019-06-19T00:57:34.854Z,0
2019-06-19T00:58:35.548Z,0
2019-06-19T00:59:36.204Z,0
2019-06-19T01:00:36.873Z,0
2019-06-19T01:01:37.578Z,0
2019-06-19T01:02:40.590Z,0
2019-06-19T01:03:41.445Z,0
2019-06-19T01:04:41.568Z,0
2019-06-19T01:05:42.235Z,0
2019-06-19T01:06:42.936Z,0
2019-06-19T01:08:45.232Z,0
2019-06-19T01:09:45.889Z,0
2019-06-19T01:12:31.970Z,0
2019-06-19T01:14:15.445Z,0
2019-06-19T01:15:16.105Z,0
2019-06-19T01:16:16.760Z,0
2019-06-19T01:17:17.413Z,0
2019-06-19T01:19:21.132Z,0
2019-06-19T01:20:21.443Z,0
2019-06-19T01:21:22.671Z,0
2019-06-19T01:24:44.726Z,0
2019-06-19T01:25:45.383Z,0
2019-06-19T01:27:01.457Z,0
2019-06-19T01:28:01.231Z,0
2019-06-19T01:30:16.284Z,0
2019-06-19T01:31:41.471Z,0
2019-06-19T01:32:41.253Z,0
2019-06-19T01:33:41.910Z,0
2019-06-19T01:34:42.563Z,0
2019-06-19T01:36:01.555Z,0
2019-06-19T01:37:02.254Z,0
2019-06-19T01:38:02.909Z,0
2019-06-19T01:40:05.215Z,0
2019-06-19T01:41:05.879Z,0
2019-06-19T01:42:21.575Z,0
2019-06-19T01:43:21.555Z,0
2019-06-19T01:44:22.163Z,0
2019-06-19T01:45:35.456Z,0
2019-06-19T01:46:36.315Z,0
2019-06-19T01:47:36.970Z,0
2019-06-19T01:48:37.628Z,0
2019-06-19T01:50:01.137Z,0
2019-06-19T01:51:01.769Z,0
2019-06-19T01:52:02.429Z,0
2019-06-19T01:53:03.121Z,0
2019-06-19T01:54:03.779Z,0
2019-06-19T01:55:04.437Z,0
2019-06-19T01:56:17.743Z,0
2019-06-19T01:58:21.753Z,0
2019-06-19T01:59:21.339Z,0
2019-06-19T02:00:32.140Z,0
2019-06-19T02:01:23.665Z,0
2019-06-19T02:02:42.785Z,0
2019-06-19T02:03:43.451Z,0
2019-06-19T02:04:44.144Z,0
2019-06-19T02:06:10.938Z,0
2019-06-19T02:07:24.325Z,0
2019-06-19T02:08:24.979Z,0
2019-06-19T02:09:25.637Z,0
2019-06-19T02:10:41.093Z,0
2019-06-19T02:11:42.384Z,0
2019-06-19T02:12:42.278Z,0
2019-06-19T02:13:42.984Z,0
2019-06-19T02:14:43.640Z,0
2019-06-19T02:15:44.296Z,0
2019-06-19T02:16:44.957Z,0
2019-06-19T02:17:45.611Z,0
2019-06-19T02:18:46.322Z,0
2019-06-19T02:19:46.979Z,0
2019-06-19T02:20:47.635Z,0
2019-06-19T02:21:50.314Z,4
2019-06-19T02:22:50.620Z,4
2019-06-19T02:23:51.371Z,4
2019-06-19T02:24:52.027Z,0
2019-06-19T02:25:54.411Z,0
2019-06-19T02:26:54.334Z,4
2019-06-19T02:27:54.991Z,4
2019-06-19T02:28:55.656Z,4
2019-06-19T02:29:56.308Z,4
2019-06-19T02:31:06.441Z,8
2019-06-19T02:32:01.831Z,4
2019-06-19T02:33:01.779Z,8
2019-06-19T02:34:03.807Z,8
2019-06-19T02:35:03.558Z,12
2019-06-19T02:36:04.214Z,12
2019-06-19T02:37:04.874Z,12
2019-06-19T02:38:05.532Z,16
2019-06-19T02:39:06.192Z,12
2019-06-19T02:40:06.851Z,16
2019-06-19T02:41:07.508Z,16
2019-06-19T02:42:08.164Z,20
2019-06-19T02:43:08.824Z,24
2019-06-19T02:44:09.488Z,24
2019-06-19T02:45:10.140Z,28
2019-06-19T02:46:10.798Z,32
2019-06-19T02:47:11.460Z,36
2019-06-19T02:48:12.111Z,40
2019-06-19T02:49:12.768Z,44
2019-06-19T02:50:13.435Z,52
2019-06-19T02:51:14.127Z,52
2019-06-19T02:52:14.784Z,56
2019-06-19T02:53:15.441Z,64
2019-06-19T02:54:16.099Z,68
2019-06-19T02:55:16.756Z,68
2019-06-19T02:56:17.414Z,76
2019-06-19T02:57:18.070Z,80
2019-06-19T02:58:18.728Z,88
2019-06-19T02:59:19.388Z,92
2019-06-19T03:00:20.081Z,100
2019-06-19T03:01:20.745Z,112
2019-06-19T03:02:21.439Z,124
2019-06-19T03:03:22.098Z,140
2019-06-19T03:04:22.757Z,156
2019-06-19T03:05:23.417Z,168
2019-06-19T03:06:24.074Z,184
2019-06-19T03:07:24.736Z,200
2019-06-19T03:08:25.393Z,212
2019-06-19T03:09:26.052Z,232
2019-06-19T03:10:26.713Z,252
2019-06-19T03:11:27.371Z,276
2019-06-19T03:12:28.030Z,308
2019-06-19T03:13:28.691Z,344
2019-06-19T03:14:29.349Z,376
2019-06-19T03:15:30.009Z,404
2019-06-19T03:16:30.669Z,428
2019-06-19T03:17:31.329Z,444
2019-06-19T03:18:31.998Z,464
2019-06-19T03:19:32.650Z,480
2019-06-19T03:20:33.309Z,504
2019-06-19T03:21:33.968Z,540
2019-06-19T03:22:34.629Z,568
2019-06-19T03:23:35.331Z,588
2019-06-19T03:24:35.989Z,596
2019-06-19T03:25:36.649Z,604
2019-06-19T03:26:37.315Z,608
2019-06-19T03:27:38.005Z,616
2019-06-19T03:28:38.667Z,628
2019-06-19T03:29:39.334Z,644
2019-06-19T03:30:40.021Z,664
2019-06-19T03:31:40.686Z,688
2019-06-19T03:32:41.343Z,712
2019-06-19T03:33:42.003Z,732
2019-06-19T03:34:42.663Z,752
2019-06-19T03:35:43.350Z,764
2019-06-19T03:36:44.032Z,768
2019-06-19T03:37:44.683Z,760
2019-06-19T03:38:45.342Z,760
2019-06-19T03:39:46.006Z,756
2019-06-19T03:40:46.701Z,764
2019-06-19T03:41:47.360Z,780
2019-06-19T03:42:48.023Z,800
2019-06-19T03:43:48.725Z,824
2019-06-19T03:44:49.415Z,848
2019-06-19T03:45:50.123Z,884
2019-06-19T03:46:50.774Z,924
2019-06-19T03:47:51.435Z,988
2019-06-19T03:48:52.096Z,1080
2019-06-19T03:49:52.763Z,1172
2019-06-19T03:50:53.459Z,1288
2019-06-19T03:51:54.119Z,1416
2019-06-19T03:52:54.794Z,1568
2019-06-19T03:53:55.481Z,1736
2019-06-19T03:54:56.143Z,1896
2019-06-19T03:55:56.811Z,2052
2019-06-19T03:56:57.466Z,2196
2019-06-19T03:57:58.129Z,2332
2019-06-19T03:58:58.794Z,2448
2019-06-19T03:59:59.449Z,2532
2019-06-19T04:01:00.114Z,2604
2019-06-19T04:02:00.776Z,2668
2019-06-19T04:03:01.439Z,2708
2019-06-19T04:04:02.099Z,2728
2019-06-19T04:05:02.816Z,2728
2019-06-19T04:06:03.476Z,2736
2019-06-19T04:07:04.135Z,2720
2019-06-19T04:08:04.798Z,2672
2019-06-19T04:09:05.460Z,2604
2019-06-19T04:10:06.126Z,2536
2019-06-19T04:11:06.783Z,2472
2019-06-19T04:12:07.483Z,2400
2019-06-19T04:13:08.143Z,2324
2019-06-19T04:14:08.805Z,2236
2019-06-19T04:15:09.466Z,2168
2019-06-19T04:16:10.126Z,2160
2019-06-19T04:17:10.791Z,2208
2019-06-19T04:18:11.447Z,2264
2019-06-19T04:19:12.108Z,2348
2019-06-19T04:20:12.770Z,2440
2019-06-19T04:21:13.430Z,2532
2019-06-19T04:22:14.095Z,2648
2019-06-19T04:23:30.344Z,2804
2019-06-19T04:24:31.004Z,2908
2019-06-19T04:25:31.704Z,3012
2019-06-19T04:26:34.955Z,3148
2019-06-19T04:29:02.175Z,3656
2019-06-19T04:30:02.891Z,3912
2019-06-19T04:31:03.548Z,4196
2019-06-19T04:32:09.077Z,4400
2019-06-19T04:33:05.867Z,4628
2019-06-19T04:34:06.528Z,4836
2019-06-19T04:35:07.192Z,5036
2019-06-19T04:37:09.535Z,5344
2019-06-19T04:38:10.214Z,5456
2019-06-19T04:39:10.878Z,5512
2019-06-19T04:40:11.541Z,5500
2019-06-19T04:41:34.985Z,5500
2019-06-19T04:42:53.707Z,5508
2019-06-19T04:43:54.370Z,5516
2019-06-19T04:44:55.032Z,5520
2019-06-19T04:45:55.702Z,5548
2019-06-19T04:46:56.364Z,5576
2019-06-19T04:48:14.783Z,5504
2019-06-19T04:49:15.460Z,5304
2019-06-19T04:50:16.138Z,5024
2019-06-19T04:51:16.801Z,4796
2019-06-19T04:52:17.464Z,4684
2019-06-19T04:53:18.127Z,4676
2019-06-19T04:54:18.805Z,4712
2019-06-19T04:55:32.108Z,4736
2019-06-19T04:57:15.528Z,4504
2019-06-19T04:58:16.170Z,4360
2019-06-19T04:59:16.833Z,4244
2019-06-19T05:00:17.493Z,4220
2019-06-19T05:01:18.156Z,4208
2019-06-19T05:02:21.444Z,4164
2019-06-19T05:05:55.386Z,4960
2019-06-19T05:06:55.746Z,5356
2019-06-19T05:07:56.445Z,5624
2019-06-19T05:09:09.757Z,5760
2019-06-19T05:10:10.420Z,5808
2019-06-19T05:11:11.081Z,5780
2019-06-19T05:13:19.494Z,5636
2019-06-19T05:15:17.888Z,5728
2019-06-19T05:16:51.244Z,5692
2019-06-19T05:23:15.690Z,5520
2019-06-19T05:24:16.355Z,5524
2019-06-19T05:25:49.819Z,5476
2019-06-19T05:28:05.066Z,5396
2019-06-19T05:29:18.377Z,5400
2019-06-19T05:33:15.743Z,5532
2019-06-19T05:34:17.055Z,5528
2019-06-19T05:35:18.061Z,5508
2019-06-19T05:36:18.725Z,5524
2019-06-19T05:38:02.094Z,5596
2019-06-19T05:39:02.763Z,5552
2019-06-19T05:40:31.148Z,5456
2019-06-19T05:46:28.113Z,6856
2019-06-19T05:47:28.773Z,6956
2019-06-19T05:48:29.439Z,6956
2019-06-19T05:49:30.101Z,6968
2019-06-19T05:50:30.763Z,7064
2019-06-19T05:51:31.426Z,7072
2019-06-19T05:52:44.773Z,6968
2019-06-19T05:53:45.440Z,6772
2019-06-19T05:54:46.101Z,6600
2019-06-19T05:55:59.410Z,6536
2019-06-19T05:57:00.073Z,6524
2019-06-19T05:59:41.628Z,6720
2019-06-19T06:00:55.012Z,6792
2019-06-19T06:02:57.335Z,6952
2019-06-19T06:03:58.005Z,7004
2019-06-19T06:04:58.699Z,7220
2019-06-19T06:06:12.011Z,7748
2019-06-19T06:07:12.687Z,8512
2019-06-19T06:08:13.378Z,11500
2019-06-19T06:09:14.058Z,28384
2019-06-19T06:10:14.739Z,42336
2019-06-19T06:11:15.416Z,41152
2019-06-19T06:12:16.076Z,44576
2019-06-19T06:13:16.773Z,36672
2019-06-19T06:14:17.439Z,49248
2019-06-19T06:15:18.142Z,50400
2019-06-19T06:16:18.814Z,60768
2019-06-19T06:17:19.482Z,60160
2019-06-19T06:18:20.213Z,55200
2019-06-19T06:19:20.889Z,59776
2019-06-19T06:20:21.557Z,53312
2019-06-19T06:21:22.230Z,48928
2019-06-19T06:22:22.933Z,51104
2019-06-19T06:23:23.604Z,60864
2019-06-19T06:24:24.274Z,55936
2019-06-19T06:25:24.979Z,60032
2019-06-19T06:26:25.649Z,63008
2019-06-19T06:27:26.319Z,61888
2019-06-19T06:28:27.037Z,65792
2019-06-19T06:29:27.736Z,62208
2019-06-19T06:30:28.408Z,62720
2019-06-19T06:31:29.076Z,57568
2019-06-19T06:32:29.760Z,55520
2019-06-19T06:33:30.416Z,59648
2019-06-19T06:34:31.098Z,64352
2019-06-19T06:35:31.797Z,66272
2019-06-19T06:36:32.469Z,66688
2019-06-19T06:37:33.143Z,65984
2019-06-19T06:38:33.815Z,64416
2019-06-19T06:39:34.604Z,66144
2019-06-19T06:40:47.388Z,58656
2019-06-19T06:41:36.886Z,68160
2019-06-19T06:42:37.555Z,33024
2019-06-19T06:43:38.237Z,71552
2019-06-19T06:44:38.940Z,73472
2019-06-19T06:45:39.611Z,76608
2019-06-19T06:46:40.282Z,71616
2019-06-19T06:47:40.966Z,67328
2019-06-19T06:48:41.635Z,63136
2019-06-19T06:49:42.307Z,65024
2019-06-19T06:50:42.978Z,71712
2019-06-19T06:51:43.674Z,69536
2019-06-19T06:52:44.362Z,76864
2019-06-19T06:53:45.077Z,80064
2019-06-19T06:54:45.745Z,81344
2019-06-19T06:55:46.452Z,78048
2019-06-19T06:56:47.124Z,75360
2019-06-19T06:57:47.796Z,72384
2019-06-19T06:58:48.469Z,67200
2019-06-19T06:59:49.143Z,69376
2019-06-19T07:00:49.817Z,74016
2019-06-19T07:01:50.488Z,73280
2019-06-19T07:02:51.160Z,68704
2019-06-19T07:03:51.830Z,71808
2019-06-19T07:04:52.504Z,68704
2019-06-19T07:05:53.176Z,69152
2019-06-19T07:06:53.860Z,69056
2019-06-19T07:07:56.170Z,71104
2019-06-19T07:08:55.225Z,72896
2019-06-19T07:09:55.918Z,67584
2019-06-19T07:10:56.687Z,68256
2019-06-19T07:11:57.303Z,69088
2019-06-19T07:12:57.976Z,70208
2019-06-19T07:13:58.686Z,72704
2019-06-19T07:14:59.359Z,71136
2019-06-19T07:16:00.218Z,67552
2019-06-19T07:17:00.969Z,64576
2019-06-19T07:18:01.662Z,69408
2019-06-19T07:19:02.803Z,75104
2019-06-19T07:20:03.504Z,84160
2019-06-19T07:21:04.187Z,86432
2019-06-19T07:22:04.875Z,76448
2019-06-19T07:23:05.566Z,66720
2019-06-19T07:24:06.261Z,61536
2019-06-19T07:25:06.929Z,65504
2019-06-19T07:26:07.614Z,69728
2019-06-19T07:27:08.345Z,71072
2019-06-19T07:28:09.062Z,66560
2019-06-19T07:29:09.749Z,68736
2019-06-19T07:30:10.433Z,69824
2019-06-19T07:31:11.118Z,67744
2019-06-19T07:32:11.802Z,62912
2019-06-19T07:33:12.488Z,62848
2019-06-19T07:34:13.175Z,70336
2019-06-19T07:35:13.874Z,71200
2019-06-19T07:36:14.546Z,68288
2019-06-19T07:37:15.233Z,68704
2019-06-19T07:38:15.916Z,69440
2019-06-19T07:39:30.922Z,67168
2019-06-19T07:40:18.282Z,66624
2019-06-19T07:41:18.971Z,67712
2019-06-19T07:42:19.688Z,68416
2019-06-19T07:43:20.373Z,66784
2019-06-19T07:44:21.061Z,63328
2019-06-19T07:45:21.747Z,61664
2019-06-19T07:46:22.558Z,64576
2019-06-19T07:47:23.255Z,63360
2019-06-19T07:48:23.982Z,61120
2019-06-19T07:49:24.697Z,59136
2019-06-19T07:50:25.401Z,62208
2019-06-19T07:51:26.075Z,61248
2019-06-19T07:52:26.758Z,58336
2019-06-19T07:53:27.461Z,60608
2019-06-19T07:54:28.131Z,61344
2019-06-19T07:55:28.820Z,62720
2019-06-19T07:56:29.503Z,62304
2019-06-19T07:57:30.226Z,62432
2019-06-19T07:58:30.909Z,62880
2019-06-19T07:59:31.595Z,61632
2019-06-19T08:00:32.285Z,58464
2019-06-19T08:01:33.012Z,61024
2019-06-19T08:02:33.728Z,59104
2019-06-19T08:03:34.414Z,54848
2019-06-19T08:04:35.136Z,59008
2019-06-19T08:05:35.820Z,59008
2019-06-19T08:06:36.506Z,58560
2019-06-19T08:07:37.190Z,58848
2019-06-19T08:08:37.875Z,56896
2019-06-19T08:09:38.558Z,54208
2019-06-19T08:10:39.247Z,54528
2019-06-19T08:11:39.930Z,51456
2019-06-19T08:12:40.624Z,42880
2019-06-19T08:13:41.341Z,44512
2019-06-19T08:14:42.021Z,39488
2019-06-19T08:15:42.708Z,23872
2019-06-19T08:16:43.431Z,15800
2019-06-19T08:17:44.121Z,14444
2019-06-19T08:18:44.802Z,13816
2019-06-19T08:19:45.519Z,13340
2019-06-19T08:20:46.212Z,12740
2019-06-19T08:21:46.928Z,12304
2019-06-19T08:22:47.649Z,11900
2019-06-19T08:23:48.333Z,11316
2019-06-19T08:24:49.014Z,11084
2019-06-19T08:25:50.827Z,10880
2019-06-19T08:26:51.382Z,10648
2019-06-19T08:27:52.061Z,10468
2019-06-19T08:28:52.743Z,10396
2019-06-19T08:29:53.428Z,10408
2019-06-19T08:30:54.113Z,10172
2019-06-19T08:31:54.844Z,9952
2019-06-19T08:32:55.566Z,9764
2019-06-19T08:33:56.282Z,9664
2019-06-19T08:34:56.964Z,9516
2019-06-19T08:35:57.652Z,9504
2019-06-19T08:36:58.387Z,9440
2019-06-19T08:37:59.081Z,9460
2019-06-19T08:38:59.791Z,9428
2019-06-19T08:40:00.511Z,9464
2019-06-19T08:41:01.223Z,9420
2019-06-19T08:42:01.886Z,9376
2019-06-19T08:43:02.565Z,8884
2019-06-19T08:44:03.249Z,9648
2019-06-19T08:45:03.935Z,9860
2019-06-19T08:46:04.621Z,9888
2019-06-19T08:47:05.312Z,9824
2019-06-19T08:48:05.983Z,9744
2019-06-19T08:49:06.664Z,9808
2019-06-19T08:50:07.365Z,9692
2019-06-19T08:51:08.051Z,9672
2019-06-19T08:52:08.744Z,9572
2019-06-19T08:53:09.463Z,9416
2019-06-19T08:54:10.189Z,9332
2019-06-19T08:55:10.877Z,9296
2019-06-19T08:56:11.554Z,9256
2019-06-19T08:57:12.241Z,9056
2019-06-19T08:58:12.924Z,9164
2019-06-19T08:59:13.609Z,8136
2019-06-19T09:00:14.289Z,8732
2019-06-19T09:01:14.976Z,7916
2019-06-19T09:02:15.700Z,7816
2019-06-19T09:03:16.381Z,7848
2019-06-19T09:04:33.279Z,8812
2019-06-19T09:05:18.782Z,8552
2019-06-19T09:06:19.494Z,9096
2019-06-19T09:07:20.179Z,8932
2019-06-19T09:08:20.861Z,9260
2019-06-19T09:09:21.546Z,8836
2019-06-19T09:10:22.229Z,9344
2019-06-19T09:11:22.915Z,10048
2019-06-19T09:12:23.598Z,10976
2019-06-19T09:13:24.282Z,10192
2019-06-19T09:14:25.852Z,8932
2019-06-19T09:15:26.649Z,8432
2019-06-19T09:16:27.368Z,8496
2019-06-19T09:17:28.051Z,9572
2019-06-19T09:18:28.736Z,11336
2019-06-19T09:19:29.421Z,12172
2019-06-19T09:20:30.106Z,11928
2019-06-19T09:21:30.795Z,11728
2019-06-19T09:22:31.475Z,10696
2019-06-19T09:23:32.165Z,10344
2019-06-19T09:24:32.846Z,10164
2019-06-19T09:25:33.561Z,9920
2019-06-19T09:26:34.292Z,9768
2019-06-19T09:27:35.006Z,9984
2019-06-19T09:28:35.686Z,10368
2019-06-19T09:29:36.407Z,10576
2019-06-19T09:30:37.097Z,9968
2019-06-19T09:31:37.822Z,10304
2019-06-19T09:32:38.503Z,9368
2019-06-19T09:33:39.220Z,11168
2019-06-19T09:34:50.123Z,9604
2019-06-19T09:35:41.585Z,9456
2019-06-19T09:36:42.263Z,8836
2019-06-19T09:37:43.119Z,7964
2019-06-19T09:38:43.781Z,7776
2019-06-19T09:39:44.465Z,8584
2019-06-19T09:40:45.147Z,8296
2019-06-19T09:41:45.865Z,7720
2019-06-19T09:42:46.549Z,7276
2019-06-19T09:43:47.232Z,6540
2019-06-19T09:44:47.915Z,6948
2019-06-19T09:45:48.598Z,7648
2019-06-19T09:46:49.297Z,7632
2019-06-19T09:47:50.005Z,8060
2019-06-19T09:48:50.743Z,9748
2019-06-19T09:49:51.365Z,9700
2019-06-19T09:50:52.047Z,9744
2019-06-19T09:51:52.735Z,9520
2019-06-19T09:52:53.413Z,8716
2019-06-19T09:53:54.097Z,8512
2019-06-19T09:54:54.818Z,8240
2019-06-19T09:55:55.508Z,7696
2019-06-19T09:56:56.238Z,7056
2019-06-19T09:57:56.921Z,6616
2019-06-19T09:58:57.603Z,6652
2019-06-19T09:59:58.287Z,7000
2019-06-19T10:00:59.021Z,7620
2019-06-19T10:01:59.702Z,7460
2019-06-19T10:03:00.388Z,8792
2019-06-19T10:04:01.106Z,9544
2019-06-19T10:05:07.155Z,10076
2019-06-19T10:06:02.506Z,10476
2019-06-19T10:07:03.188Z,10928
2019-06-19T10:08:03.873Z,10692
2019-06-19T10:09:04.566Z,10008
2019-06-19T10:10:05.277Z,9772
2019-06-19T10:11:05.962Z,8328
2019-06-19T10:12:06.644Z,7800
2019-06-19T10:13:07.327Z,7208
2019-06-19T10:14:08.039Z,6672
2019-06-19T10:15:08.733Z,6852
2019-06-19T10:16:09.416Z,6556
2019-06-19T10:17:10.106Z,6168
2019-06-19T10:18:12.258Z,7460
2019-06-19T10:19:12.476Z,8192
2019-06-19T10:20:13.141Z,8748
2019-06-19T10:21:13.827Z,8640
2019-06-19T10:22:14.544Z,8876
2019-06-19T10:23:15.237Z,9288
2019-06-19T10:24:15.912Z,8976
2019-06-19T10:25:16.611Z,8484
2019-06-19T10:26:17.346Z,8292
2019-06-19T10:27:17.979Z,8240
2019-06-19T10:28:18.662Z,7908
2019-06-19T10:29:19.458Z,7424
2019-06-19T10:30:20.106Z,7060
2019-06-19T10:31:20.787Z,6900
2019-06-19T10:32:31.380Z,6892
2019-06-19T10:33:23.142Z,7072
2019-06-19T10:34:23.842Z,7416
2019-06-19T10:35:24.555Z,6976
2019-06-19T10:36:25.228Z,6712
2019-06-19T10:37:25.914Z,6740
2019-06-19T10:38:26.589Z,6240
2019-06-19T10:39:27.286Z,6428
2019-06-19T10:40:27.951Z,6508
2019-06-19T10:41:28.638Z,7008
2019-06-19T10:42:29.316Z,7816
2019-06-19T10:43:29.998Z,8320
2019-06-19T10:44:30.686Z,8572
2019-06-19T10:45:31.362Z,9016
2019-06-19T10:46:41.227Z,9376
2019-06-19T10:47:33.718Z,9340
2019-06-19T10:49:36.070Z,7496
2019-06-19T10:50:36.755Z,6880
2019-06-19T10:51:37.465Z,7360
2019-06-19T10:52:38.144Z,6284
2019-06-19T10:53:38.827Z,6024
2019-06-19T10:54:39.508Z,6488
2019-06-19T10:55:40.190Z,6060
2019-06-19T10:56:40.869Z,6040
2019-06-19T10:57:41.553Z,5520
2019-06-19T10:58:42.361Z,4892
2019-06-19T10:59:42.949Z,5468
2019-06-19T11:00:43.671Z,4844
2019-06-19T11:01:44.347Z,5496
2019-06-19T11:02:45.028Z,5424
2019-06-19T11:03:45.708Z,6036
2019-06-19T11:04:46.387Z,6052
2019-06-19T11:05:47.070Z,5812
2019-06-19T11:06:47.750Z,5964
2019-06-19T11:07:48.433Z,6308
2019-06-19T11:08:49.115Z,6580
2019-06-19T11:09:49.828Z,6320
2019-06-19T11:10:50.508Z,5936
2019-06-19T11:11:51.191Z,5652
2019-06-19T11:12:51.874Z,5492
2019-06-19T11:13:52.554Z,5412
2019-06-19T11:14:53.270Z,5452
2019-06-19T11:15:53.952Z,5580
2019-06-19T11:16:54.633Z,5552
2019-06-19T11:17:55.313Z,5428
2019-06-19T11:18:56.019Z,5228
2019-06-19T11:19:56.877Z,5068
2019-06-19T11:21:59.175Z,5020
2019-06-19T11:22:59.857Z,5060
2019-06-19T11:24:00.540Z,5176
2019-06-19T11:25:01.255Z,5224
2019-06-19T11:26:01.941Z,5392
2019-06-19T11:27:02.616Z,5864
2019-06-19T11:28:03.330Z,5992
2019-06-19T11:29:04.045Z,6116
2019-06-19T11:30:04.730Z,6168
2019-06-19T11:31:05.405Z,6284
2019-06-19T11:32:06.088Z,6256
2019-06-19T11:33:06.775Z,6120
2019-06-19T11:34:07.480Z,6044
2019-06-19T11:35:08.159Z,6020
2019-06-19T11:36:08.838Z,5916
2019-06-19T11:37:09.523Z,5736
2019-06-19T11:38:10.239Z,5492
2019-06-19T11:39:10.918Z,5244
2019-06-19T11:40:11.600Z,5028
2019-06-19T11:41:12.318Z,4860
2019-06-19T11:42:13.008Z,4732
2019-06-19T11:43:13.726Z,4620
2019-06-19T11:44:14.439Z,4568
2019-06-19T11:45:15.116Z,4592
2019-06-19T11:46:16.869Z,4640
2019-06-19T11:47:17.470Z,4744
2019-06-19T11:48:18.155Z,4844
2019-06-19T11:49:18.973Z,4812
2019-06-19T11:50:19.584Z,4764
2019-06-19T11:51:20.266Z,4388
2019-06-19T11:52:20.980Z,3984
2019-06-19T11:53:21.695Z,3940
2019-06-19T11:54:22.376Z,4564
2019-06-19T11:55:23.057Z,4652
2019-06-19T11:56:23.744Z,4672
2019-06-19T11:57:24.431Z,4684
2019-06-19T11:58:25.109Z,4760
2019-06-19T11:59:25.788Z,4604
2019-06-19T12:00:26.493Z,4560
2019-06-19T12:01:27.223Z,3972
2019-06-19T12:02:28.104Z,4744
2019-06-19T12:03:28.783Z,4896
2019-06-19T12:04:29.463Z,3980
2019-06-19T12:05:30.143Z,3956
2019-06-19T12:06:30.824Z,3296
2019-06-19T12:07:31.548Z,3280
2019-06-19T12:08:32.223Z,3548
2019-06-19T12:09:32.913Z,4252
2019-06-19T12:10:33.627Z,4424
2019-06-19T12:11:34.306Z,4740
2019-06-19T12:12:34.987Z,4740
2019-06-19T12:13:35.678Z,4764
2019-06-19T12:14:36.388Z,4444
2019-06-19T12:15:37.068Z,4524
2019-06-19T12:16:37.750Z,4504
2019-06-19T12:17:38.516Z,4436
2019-06-19T12:18:39.151Z,4272
2019-06-19T12:19:39.865Z,4444
2019-06-19T12:20:40.542Z,4436
2019-06-19T12:21:41.223Z,4480
2019-06-19T12:22:41.902Z,4432
2019-06-19T12:23:42.600Z,4084
2019-06-19T12:24:43.473Z,4088
2019-06-19T12:25:44.152Z,3424
2019-06-19T12:26:44.834Z,3536
2019-06-19T12:27:45.753Z,3848
2019-06-19T12:28:46.233Z,4348
2019-06-19T12:29:46.938Z,4348
2019-06-19T12:30:47.673Z,4340
2019-06-19T12:31:48.332Z,4324
2019-06-19T12:32:49.022Z,4312
2019-06-19T12:33:49.782Z,4304
2019-06-19T12:34:50.461Z,4300
2019-06-19T12:35:51.139Z,4304
2019-06-19T12:36:51.819Z,4296
2019-06-19T12:37:52.501Z,4304
2019-06-19T12:38:53.180Z,4296
2019-06-19T12:39:53.868Z,4296
2019-06-19T12:40:54.542Z,4332
2019-06-19T12:41:55.222Z,4332
2019-06-19T12:42:55.903Z,4308
2019-06-19T12:43:56.595Z,4320
2019-06-19T12:44:57.312Z,4300
2019-06-19T12:45:57.987Z,4288
2019-06-19T12:46:58.662Z,4284
2019-06-19T12:47:59.341Z,4300
2019-06-19T12:49:00.021Z,4320
2019-06-19T12:50:00.892Z,4352
2019-06-19T12:51:01.413Z,4352
2019-06-19T12:52:02.090Z,4368
2019-06-19T12:53:02.772Z,4368
2019-06-19T12:54:03.465Z,4380
2019-06-19T12:55:05.226Z,4380
2019-06-19T12:56:05.840Z,4408
2019-06-19T12:57:06.548Z,4408
2019-06-19T12:58:07.233Z,4436
2019-06-19T12:59:07.911Z,4444
2019-06-19T13:00:08.591Z,4436
2019-06-19T13:01:09.305Z,4460
2019-06-19T13:02:09.983Z,4408
2019-06-19T13:03:10.699Z,4464
2019-06-19T13:04:11.399Z,4388
2019-06-19T13:05:12.103Z,4448
2019-06-19T13:06:12.784Z,4436
2019-06-19T13:07:13.462Z,4472
2019-06-19T13:08:14.204Z,4476
2019-06-19T13:09:14.920Z,4460
2019-06-19T13:10:15.571Z,4480
2019-06-19T13:11:16.263Z,4452
2019-06-19T13:12:16.970Z,4452
2019-06-19T13:13:17.659Z,4464
2019-06-19T13:14:18.329Z,4484
2019-06-19T13:15:19.012Z,4532
2019-06-19T13:16:19.688Z,4560
2019-06-19T13:17:20.369Z,4540
2019-06-19T13:18:21.054Z,4580
2019-06-19T13:19:21.729Z,4568
2019-06-19T13:20:22.407Z,4584
2019-06-19T13:21:23.094Z,4584
2019-06-19T13:22:23.769Z,4596
2019-06-19T13:23:24.447Z,4620
2019-06-19T13:24:25.129Z,4640
2019-06-19T13:25:25.809Z,4656
2019-06-19T13:26:26.487Z,4656
2019-06-19T13:27:27.166Z,4652
2019-06-19T13:28:27.847Z,4684
2019-06-19T13:29:28.529Z,4668
2019-06-19T13:30:29.209Z,4692
2019-06-19T13:31:29.887Z,4680
2019-06-19T13:32:30.569Z,4680
2019-06-19T13:33:31.250Z,4712
2019-06-19T13:34:31.936Z,4688
2019-06-19T13:35:32.646Z,4704
2019-06-19T13:36:33.327Z,4748
2019-06-19T13:37:34.427Z,4760
2019-06-19T13:38:34.760Z,4748
2019-06-19T13:39:35.441Z,4752
2019-06-19T13:40:36.161Z,4716
2019-06-19T13:41:36.839Z,4656
2019-06-19T13:42:37.517Z,4676
2019-06-19T13:43:40.822Z,4684
2019-06-19T13:44:39.869Z,4704
2019-06-19T13:45:40.591Z,4728
2019-06-19T13:46:41.319Z,4732
2019-06-19T13:47:42.034Z,4752
2019-06-19T13:48:42.706Z,4736
2019-06-19T13:49:43.389Z,4772
2019-06-19T13:50:44.108Z,4772
2019-06-19T13:51:44.775Z,4800
2019-06-19T13:52:45.455Z,4800
2019-06-19T13:53:46.143Z,4808
2019-06-19T13:54:46.816Z,4836
2019-06-19T13:55:47.495Z,4872
2019-06-19T13:56:48.181Z,4876
2019-06-19T13:57:48.855Z,4880
2019-06-19T13:58:49.583Z,4892
2019-06-19T13:59:50.261Z,4912
2019-06-19T14:00:50.953Z,4928
2019-06-19T14:01:51.624Z,4924
2019-06-19T14:02:52.303Z,4972
2019-06-19T14:03:52.975Z,5012
2019-06-19T14:04:53.657Z,5052
2019-06-19T14:05:54.342Z,5068
2019-06-19T14:06:55.019Z,5044
2019-06-19T14:07:55.695Z,5036
2019-06-19T14:08:56.379Z,5004
2019-06-19T14:09:57.063Z,5028
2019-06-19T14:10:57.736Z,5044
2019-06-19T14:11:58.507Z,5060
2019-06-19T14:12:59.145Z,5084
2019-06-19T14:13:59.859Z,5120
2019-06-19T14:15:00.540Z,5160
2019-06-19T14:16:01.222Z,5192
2019-06-19T14:17:01.913Z,5216
2019-06-19T14:18:02.622Z,5240
2019-06-19T14:19:03.355Z,5268
2019-06-19T14:20:04.032Z,5320
2019-06-19T14:21:04.697Z,5328
2019-06-19T14:22:05.380Z,5436
2019-06-19T14:23:06.061Z,5528
2019-06-19T14:24:06.735Z,5676
2019-06-19T14:25:07.466Z,5852
2019-06-19T14:26:08.140Z,5996
2019-06-19T14:27:08.853Z,6148
2019-06-19T14:28:09.532Z,6364
2019-06-19T14:29:10.249Z,6560
2019-06-19T14:30:10.929Z,6500
2019-06-19T14:31:11.609Z,6744
2019-06-19T14:32:12.291Z,6880
2019-06-19T14:33:12.967Z,7088
2019-06-19T14:34:13.650Z,7016